sensor_id;sensor_type;location;lat;lon;timestamp;pressure;altitude;pressure_sealevel;temperature;humidity
30724;BME280;17473;52.286;20.930;2023-08-20T00:01:38;100575.28;;;23.97;98.49
30724;BME280;17473;52.286;20.930;2023-08-20T00:04:06;100563.78;;;23.85;99.65
30724;BME280;17473;52.286;20.930;2023-08-20T00:06:33;100569.41;;;23.73;100.00
30724;BME280;17473;52.286;20.930;2023-08-20T00:09:01;100567.63;;;23.72;100.00
30724;BME280;17473;52.286;20.930;2023-08-20T00:11:28;100566.00;;;23.62;100.00
30724;BME280;17473;52.286;20.930;2023-08-20T00:13:55;100571.16;;;23.75;100.00
30724;BME280;17473;52.286;20.930;2023-08-20T00:16:22;100568.41;;;23.77;99.96
30724;BME280;17473;52.286;20.930;2023-08-20T00:18:50;100565.97;;;23.63;100.00
30724;BME280;17473;52.286;20.930;2023-08-20T00:21:18;100562.59;;;23.52;100.00
30724;BME280;17473;52.286;20.930;2023-08-20T00:23:45;100563.44;;;23.55;100.00
30724;BME280;17473;52.286;20.930;2023-08-20T00:26:12;100563.50;;;23.49;100.00
30724;BME280;17473;52.286;20.930;2023-08-20T00:28:40;100562.47;;;23.58;100.00
30724;BME280;17473;52.286;20.930;2023-08-20T00:31:07;100556.09;;;23.64;100.00
30724;BME280;17473;52.286;20.930;2023-08-20T00:33:34;100557.97;;;23.60;100.00
30724;BME280;17473;52.286;20.930;2023-08-20T00:36:01;100563.44;;;23.55;100.00
30724;BME280;17473;52.286;20.930;2023-08-20T00:38:29;100562.59;;;23.50;100.00
30724;BME280;17473;52.286;20.930;2023-08-20T00:40:57;100557.59;;;23.27;100.00
30724;BME280;17473;52.286;20.930;2023-08-20T00:43:24;100559.50;;;23.19;100.00
30724;BME280;17473;52.286;20.930;2023-08-20T00:45:51;100556.91;;;23.12;100.00
30724;BME280;17473;52.286;20.930;2023-08-20T00:48:19;100558.50;;;23.27;100.00
30724;BME280;17473;52.286;20.930;2023-08-20T00:50:46;100561.75;;;23.47;100.00
30724;BME280;17473;52.286;20.930;2023-08-20T00:53:14;100558.13;;;23.51;100.00
30724;BME280;17473;52.286;20.930;2023-08-20T00:55:42;100561.59;;;23.57;100.00
30724;BME280;17473;52.286;20.930;2023-08-20T00:58:11;100556.19;;;23.59;100.00
30724;BME280;17473;52.286;20.930;2023-08-20T01:00:38;100558.03;;;23.54;100.00
30724;BME280;17473;52.286;20.930;2023-08-20T01:03:06;100564.50;;;23.45;100.00
30724;BME280;17473;52.286;20.930;2023-08-20T01:05:45;100562.81;;;23.38;100.00
30724;BME280;17473;52.286;20.930;2023-08-20T01:08:37;100557.72;;;23.16;100.00
30724;BME280;17473;52.286;20.930;2023-08-20T01:11:26;100551.56;;;23.08;100.00
30724;BME280;17473;52.286;20.930;2023-08-20T01:13:57;100551.53;;;23.09;100.00
30724;BME280;17473;52.286;20.930;2023-08-20T01:16:24;100551.44;;;23.20;100.00
30724;BME280;17473;52.286;20.930;2023-08-20T01:18:52;100556.84;;;23.16;100.00
30724;BME280;17473;52.286;20.930;2023-08-20T01:21:38;100555.84;;;23.26;100.00
30724;BME280;17473;52.286;20.930;2023-08-20T01:24:23;100558.34;;;23.37;100.00
30724;BME280;17473;52.286;20.930;2023-08-20T01:29:46;100558.47;;;23.29;100.00
30724;BME280;17473;52.286;20.930;2023-08-20T01:32:13;100557.50;;;23.32;100.00
30724;BME280;17473;52.286;20.930;2023-08-20T01:34:41;100555.03;;;23.16;100.00
30724;BME280;17473;52.286;20.930;2023-08-20T01:37:09;100554.06;;;23.23;100.00
30724;BME280;17473;52.286;20.930;2023-08-20T01:39:36;100551.47;;;23.16;100.00
30724;BME280;17473;52.286;20.930;2023-08-20T01:42:04;100554.13;;;23.19;100.00
30724;BME280;17473;52.286;20.930;2023-08-20T01:44:31;100554.97;;;23.22;100.00
30724;BME280;17473;52.286;20.930;2023-08-20T01:46:58;100562.22;;;23.17;100.00
30724;BME280;17473;52.286;20.930;2023-08-20T01:49:26;100564.03;;;23.15;100.00
30724;BME280;17473;52.286;20.930;2023-08-20T01:51:53;100556.06;;;23.09;100.00
30724;BME280;17473;52.286;20.930;2023-08-20T01:54:20;100556.13;;;23.04;100.00
30724;BME280;17473;52.286;20.930;2023-08-20T01:56:47;100553.47;;;23.01;100.00
30724;BME280;17473;52.286;20.930;2023-08-20T01:59:14;100566.66;;;23.23;100.00
30724;BME280;17473;52.286;20.930;2023-08-20T02:01:41;100566.78;;;23.12;100.00
30724;BME280;17473;52.286;20.930;2023-08-20T02:04:08;100566.88;;;23.06;100.00
30724;BME280;17473;52.286;20.930;2023-08-20T02:06:35;100569.56;;;23.07;100.00
30724;BME280;17473;52.286;20.930;2023-08-20T02:09:03;100575.03;;;23.00;100.00
30724;BME280;17473;52.286;20.930;2023-08-20T02:11:30;100572.50;;;22.89;100.00
30724;BME280;17473;52.286;20.930;2023-08-20T02:14:03;100575.09;;;22.95;100.00
30724;BME280;17473;52.286;20.930;2023-08-20T02:16:30;100562.44;;;23.00;100.00
30724;BME280;17473;52.286;20.930;2023-08-20T02:18:57;100568.75;;;23.01;100.00
30724;BME280;17473;52.286;20.930;2023-08-20T02:21:24;100567.97;;;22.92;100.00
30724;BME280;17473;52.286;20.930;2023-08-20T02:23:51;100571.59;;;22.90;100.00
30724;BME280;17473;52.286;20.930;2023-08-20T02:26:18;100567.78;;;23.06;100.00
30724;BME280;17473;52.286;20.930;2023-08-20T02:28:45;100575.81;;;23.08;100.00
30724;BME280;17473;52.286;20.930;2023-08-20T02:31:12;100560.69;;;22.97;100.00
30724;BME280;17473;52.286;20.930;2023-08-20T02:33:40;100566.94;;;23.01;100.00
30724;BME280;17473;52.286;20.930;2023-08-20T02:36:07;100569.69;;;22.98;100.00
30724;BME280;17473;52.286;20.930;2023-08-20T02:38:34;100564.13;;;23.09;100.00
30724;BME280;17473;52.286;20.930;2023-08-20T02:41:02;100565.06;;;23.05;100.00
30724;BME280;17473;52.286;20.930;2023-08-20T02:43:32;100561.38;;;23.13;100.00
30724;BME280;17473;52.286;20.930;2023-08-20T02:45:59;100553.41;;;23.06;100.00
30724;BME280;17473;52.286;20.930;2023-08-20T02:48:26;100559.66;;;23.08;100.00
30724;BME280;17473;52.286;20.930;2023-08-20T02:50:54;100555.22;;;23.05;100.00
30724;BME280;17473;52.286;20.930;2023-08-20T02:53:22;100557.13;;;22.95;100.00
30724;BME280;17473;52.286;20.930;2023-08-20T02:55:49;100551.25;;;22.70;100.00
30724;BME280;17473;52.286;20.930;2023-08-20T02:58:16;100548.25;;;22.90;100.00
30724;BME280;17473;52.286;20.930;2023-08-20T03:00:43;100553.75;;;22.84;100.00
30724;BME280;17473;52.286;20.930;2023-08-20T03:03:12;100551.66;;;23.03;100.00
30724;BME280;17473;52.286;20.930;2023-08-20T03:05:40;100553.28;;;23.13;100.00
30724;BME280;17473;52.286;20.930;2023-08-20T03:08:07;100553.47;;;23.03;100.00
30724;BME280;17473;52.286;20.930;2023-08-20T03:10:34;100553.53;;;22.96;100.00
30724;BME280;17473;52.286;20.930;2023-08-20T03:13:02;100557.88;;;23.07;100.00
30724;BME280;17473;52.286;20.930;2023-08-20T03:15:30;100557.72;;;23.19;100.00
30724;BME280;17473;52.286;20.930;2023-08-20T03:17:57;100568.44;;;23.24;100.00
30724;BME280;17473;52.286;20.930;2023-08-20T03:20:24;100562.97;;;23.27;100.00
30724;BME280;17473;52.286;20.930;2023-08-20T03:22:51;100570.84;;;23.41;100.00
30724;BME280;17473;52.286;20.930;2023-08-20T03:25:19;100567.66;;;23.12;100.00
30724;BME280;17473;52.286;20.930;2023-08-20T03:27:46;100564.25;;;23.01;100.00
30724;BME280;17473;52.286;20.930;2023-08-20T03:30:13;100571.47;;;22.97;100.00
30724;BME280;17473;52.286;20.930;2023-08-20T03:32:40;100576.03;;;22.91;100.00
30724;BME280;17473;52.286;20.930;2023-08-20T03:35:08;100571.72;;;22.79;100.00
30724;BME280;17473;52.286;20.930;2023-08-20T03:37:35;100570.06;;;22.70;100.00
30724;BME280;17473;52.286;20.930;2023-08-20T03:40:03;100572.81;;;22.64;100.00
30724;BME280;17473;52.286;20.930;2023-08-20T03:42:31;100569.03;;;22.79;100.00
30724;BME280;17473;52.286;20.930;2023-08-20T03:44:59;100575.13;;;22.93;100.00
30724;BME280;17473;52.286;20.930;2023-08-20T03:47:26;100575.09;;;22.95;100.00
30724;BME280;17473;52.286;20.930;2023-08-20T03:49:53;100567.00;;;22.98;100.00
30724;BME280;17473;52.286;20.930;2023-08-20T03:52:20;100570.47;;;23.06;100.00
30724;BME280;17473;52.286;20.930;2023-08-20T03:54:47;100572.09;;;23.15;100.00
30724;BME280;17473;52.286;20.930;2023-08-20T03:57:14;100574.59;;;23.32;100.00
30724;BME280;17473;52.286;20.930;2023-08-20T03:59:41;100575.78;;;23.67;100.00
30724;BME280;17473;52.286;20.930;2023-08-20T04:02:08;100581.84;;;24.30;96.60
30724;BME280;17473;52.286;20.930;2023-08-20T04:04:35;100575.16;;;24.48;94.31
30724;BME280;17473;52.286;20.930;2023-08-20T04:07:04;100579.97;;;24.79;92.05
30724;BME280;17473;52.286;20.930;2023-08-20T04:09:33;100574.84;;;25.45;88.43
30724;BME280;17473;52.286;20.930;2023-08-20T04:12:00;100583.16;;;26.07;85.04
30724;BME280;17473;52.286;20.930;2023-08-20T04:14:27;100583.16;;;26.71;81.18
30724;BME280;17473;52.286;20.930;2023-08-20T04:16:54;100588.19;;;27.14;77.94
30724;BME280;17473;52.286;20.930;2023-08-20T04:19:22;100597.09;;;27.74;73.88
30724;BME280;17473;52.286;20.930;2023-08-20T04:21:49;100593.41;;;28.27;71.07
30724;BME280;17473;52.286;20.930;2023-08-20T04:24:16;100600.38;;;28.84;67.75
30724;BME280;17473;52.286;20.930;2023-08-20T04:26:43;100599.13;;;29.39;65.60
30724;BME280;17473;52.286;20.930;2023-08-20T04:29:10;100592.50;;;29.89;62.92
30724;BME280;17473;52.286;20.930;2023-08-20T04:31:37;100603.97;;;30.38;60.46
30724;BME280;17473;52.286;20.930;2023-08-20T04:34:05;100595.66;;;31.19;58.31
30724;BME280;17473;52.286;20.930;2023-08-20T04:36:32;100594.06;;;31.52;56.15
30724;BME280;17473;52.286;20.930;2023-08-20T04:38:59;100599.69;;;32.19;54.72
30724;BME280;17473;52.286;20.930;2023-08-20T04:41:26;100593.91;;;32.76;52.30
30724;BME280;17473;52.286;20.930;2023-08-20T04:43:53;100588.56;;;33.07;51.02
30724;BME280;17473;52.286;20.930;2023-08-20T04:46:20;100587.50;;;33.88;48.90
30724;BME280;17473;52.286;20.930;2023-08-20T04:48:47;100584.97;;;34.44;46.85
30724;BME280;17473;52.286;20.930;2023-08-20T04:51:15;100583.81;;;34.92;45.82
30724;BME280;17473;52.286;20.930;2023-08-20T04:53:42;100586.06;;;35.27;44.82
30724;BME280;17473;52.286;20.930;2023-08-20T04:56:09;100593.47;;;36.07;43.27
30724;BME280;17473;52.286;20.930;2023-08-20T04:58:36;100582.84;;;36.54;41.65
30724;BME280;17473;52.286;20.930;2023-08-20T05:01:03;100581.25;;;37.02;41.17
30724;BME280;17473;52.286;20.930;2023-08-20T05:03:30;100581.06;;;37.89;38.74
30724;BME280;17473;52.286;20.930;2023-08-20T05:05:57;100579.19;;;38.71;36.97
30724;BME280;17473;52.286;20.930;2023-08-20T05:08:25;100588.34;;;38.82;36.76
30724;BME280;17473;52.286;20.930;2023-08-20T05:10:52;100587.72;;;38.90;36.61
30724;BME280;17473;52.286;20.930;2023-08-20T05:13:19;100582.06;;;39.03;36.54
30724;BME280;17473;52.286;20.930;2023-08-20T05:15:47;100582.50;;;39.31;35.80
30724;BME280;17473;52.286;20.930;2023-08-20T05:18:14;100586.66;;;40.12;34.41
30724;BME280;17473;52.286;20.930;2023-08-20T05:20:41;100585.00;;;40.51;33.59
30724;BME280;17473;52.286;20.930;2023-08-20T05:23:08;100587.69;;;40.32;33.91
30724;BME280;17473;52.286;20.930;2023-08-20T05:25:36;100594.91;;;39.81;34.43
30724;BME280;17473;52.286;20.930;2023-08-20T05:28:03;100589.19;;;39.61;34.37
30724;BME280;17473;52.286;20.930;2023-08-20T05:30:30;100594.16;;;40.21;33.90
30724;BME280;17473;52.286;20.930;2023-08-20T05:32:57;100599.66;;;40.42;33.15
30724;BME280;17473;52.286;20.930;2023-08-20T05:35:24;100602.22;;;40.86;32.79
30724;BME280;17473;52.286;20.930;2023-08-20T05:37:52;100605.50;;;40.70;32.77
30724;BME280;17473;52.286;20.930;2023-08-20T05:40:19;100598.44;;;41.38;32.01
30724;BME280;17473;52.286;20.930;2023-08-20T05:42:47;100607.09;;;41.94;31.24
30724;BME280;17473;52.286;20.930;2023-08-20T05:45:18;100601.47;;;42.33;30.74
30724;BME280;17473;52.286;20.930;2023-08-20T05:47:45;100597.94;;;43.06;29.74
30724;BME280;17473;52.286;20.930;2023-08-20T05:50:12;100600.34;;;42.63;30.09
30724;BME280;17473;52.286;20.930;2023-08-20T05:52:39;100597.00;;;43.80;28.79
30724;BME280;17473;52.286;20.930;2023-08-20T05:55:06;100594.72;;;43.75;28.87
30724;BME280;17473;52.286;20.930;2023-08-20T05:57:35;100605.09;;;43.91;28.58
30724;BME280;17473;52.286;20.930;2023-08-20T06:00:05;100602.66;;;44.06;27.87
30724;BME280;17473;52.286;20.930;2023-08-20T06:02:32;100599.38;;;44.63;27.65
30724;BME280;17473;52.286;20.930;2023-08-20T06:05:00;100609.94;;;44.94;27.22
30724;BME280;17473;52.286;20.930;2023-08-20T06:07:27;100598.66;;;46.21;24.98
30724;BME280;17473;52.286;20.930;2023-08-20T06:09:54;100597.97;;;45.61;25.88
30724;BME280;17473;52.286;20.930;2023-08-20T06:12:22;100602.00;;;46.00;25.43
30724;BME280;17473;52.286;20.930;2023-08-20T06:14:49;100598.81;;;45.95;25.54
30724;BME280;17473;52.286;20.930;2023-08-20T06:17:16;100610.53;;;46.15;25.45
30724;BME280;17473;52.286;20.930;2023-08-20T06:19:44;100600.34;;;46.47;25.16
30724;BME280;17473;52.286;20.930;2023-08-20T06:22:11;100611.47;;;47.03;24.35
30724;BME280;17473;52.286;20.930;2023-08-20T06:24:38;100598.31;;;47.52;24.07
30724;BME280;17473;52.286;20.930;2023-08-20T06:27:06;100601.47;;;47.17;24.28
30724;BME280;17473;52.286;20.930;2023-08-20T06:29:33;100603.06;;;47.52;23.93
30724;BME280;17473;52.286;20.930;2023-08-20T06:32:00;100606.47;;;48.00;23.13
30724;BME280;17473;52.286;20.930;2023-08-20T06:34:27;100607.81;;;47.89;22.94
30724;BME280;17473;52.286;20.930;2023-08-20T06:36:54;100613.56;;;47.41;23.68
30724;BME280;17473;52.286;20.930;2023-08-20T06:39:21;100609.78;;;48.19;22.69
30724;BME280;17473;52.286;20.930;2023-08-20T06:41:49;100607.66;;;47.83;23.39
30724;BME280;17473;52.286;20.930;2023-08-20T06:44:16;100606.94;;;48.27;23.12
30724;BME280;17473;52.286;20.930;2023-08-20T06:46:43;100615.56;;;48.40;22.88
30724;BME280;17473;52.286;20.930;2023-08-20T06:49:10;100608.59;;;47.98;23.19
30724;BME280;17473;52.286;20.930;2023-08-20T06:51:37;100605.91;;;47.82;23.25
30724;BME280;17473;52.286;20.930;2023-08-20T06:54:04;100619.03;;;48.04;23.17
30724;BME280;17473;52.286;20.930;2023-08-20T06:56:33;100608.22;;;48.01;23.34
30724;BME280;17473;52.286;20.930;2023-08-20T06:59:01;100620.47;;;48.00;23.20
30724;BME280;17473;52.286;20.930;2023-08-20T07:01:30;100627.31;;;48.81;22.29
30724;BME280;17473;52.286;20.930;2023-08-20T07:03:57;100626.28;;;48.67;22.57
30724;BME280;17473;52.286;20.930;2023-08-20T07:06:25;100629.47;;;48.64;22.36
30724;BME280;17473;52.286;20.930;2023-08-20T07:08:52;100632.06;;;48.80;22.30
30724;BME280;17473;52.286;20.930;2023-08-20T07:11:19;100628.28;;;48.88;21.74
30724;BME280;17473;52.286;20.930;2023-08-20T07:13:46;100628.56;;;47.95;22.70
30724;BME280;17473;52.286;20.930;2023-08-20T07:16:13;100635.50;;;47.76;23.10
30724;BME280;17473;52.286;20.930;2023-08-20T07:18:41;100639.50;;;48.58;22.34
30724;BME280;17473;52.286;20.930;2023-08-20T07:21:08;100638.41;;;48.44;22.21
30724;BME280;17473;52.286;20.930;2023-08-20T07:23:35;100624.81;;;48.03;22.85
30724;BME280;17473;52.286;20.930;2023-08-20T07:26:10;100627.59;;;47.33;23.39
30724;BME280;17473;52.286;20.930;2023-08-20T07:28:40;100625.44;;;47.03;23.25
30724;BME280;17473;52.286;20.930;2023-08-20T07:31:30;100624.78;;;46.37;24.23
30724;BME280;17473;52.286;20.930;2023-08-20T07:34:00;100641.94;;;46.90;24.06
30724;BME280;17473;52.286;20.930;2023-08-20T07:36:31;100633.34;;;46.19;25.07
30724;BME280;17473;52.286;20.930;2023-08-20T07:39:00;100634.91;;;46.13;25.46
30724;BME280;17473;52.286;20.930;2023-08-20T07:41:29;100631.25;;;45.71;25.75
30724;BME280;17473;52.286;20.930;2023-08-20T07:43:56;100638.00;;;44.75;26.12
30724;BME280;17473;52.286;20.930;2023-08-20T07:46:23;100636.50;;;44.80;25.73
30724;BME280;17473;52.286;20.930;2023-08-20T07:48:50;100640.75;;;44.66;25.73
30724;BME280;17473;52.286;20.930;2023-08-20T07:51:17;100635.22;;;44.40;25.92
30724;BME280;17473;52.286;20.930;2023-08-20T07:53:44;100634.97;;;44.33;26.77
30724;BME280;17473;52.286;20.930;2023-08-20T07:56:12;100638.41;;;44.27;26.29
30724;BME280;17473;52.286;20.930;2023-08-20T07:58:39;100638.72;;;43.61;27.77
30724;BME280;17473;52.286;20.930;2023-08-20T08:01:06;100633.31;;;43.78;27.35
30724;BME280;17473;52.286;20.930;2023-08-20T08:03:33;100634.56;;;44.20;27.08
30724;BME280;17473;52.286;20.930;2023-08-20T08:06:02;100641.25;;;44.88;26.26
30724;BME280;17473;52.286;20.930;2023-08-20T08:08:29;100642.72;;;45.09;26.40
30724;BME280;17473;52.286;20.930;2023-08-20T08:10:56;100636.00;;;45.20;26.30
30724;BME280;17473;52.286;20.930;2023-08-20T08:13:23;100633.09;;;45.46;25.69
30724;BME280;17473;52.286;20.930;2023-08-20T08:15:51;100625.16;;;45.76;26.05
30724;BME280;17473;52.286;20.930;2023-08-20T08:18:21;100630.66;;;44.92;26.64
30724;BME280;17473;52.286;20.930;2023-08-20T08:20:49;100630.28;;;44.86;26.77
30724;BME280;17473;52.286;20.930;2023-08-20T08:23:16;100631.63;;;45.17;26.06
30724;BME280;17473;52.286;20.930;2023-08-20T08:25:43;100632.53;;;45.26;25.70
30724;BME280;17473;52.286;20.930;2023-08-20T08:28:10;100640.19;;;44.81;26.63
30724;BME280;17473;52.286;20.930;2023-08-20T08:30:38;100626.34;;;44.18;26.81
30724;BME280;17473;52.286;20.930;2023-08-20T08:33:07;100628.31;;;44.26;26.56
30724;BME280;17473;52.286;20.930;2023-08-20T08:35:34;100626.13;;;44.38;26.65
30724;BME280;17473;52.286;20.930;2023-08-20T08:38:01;100629.00;;;44.02;26.55
30724;BME280;17473;52.286;20.930;2023-08-20T08:40:30;100627.50;;;43.71;27.32
30724;BME280;17473;52.286;20.930;2023-08-20T08:42:57;100629.09;;;43.74;27.14
30724;BME280;17473;52.286;20.930;2023-08-20T08:45:26;100641.09;;;43.74;26.58
30724;BME280;17473;52.286;20.930;2023-08-20T08:47:54;100637.72;;;44.07;26.32
30724;BME280;17473;52.286;20.930;2023-08-20T08:50:22;100630.72;;;44.74;25.13
30724;BME280;17473;52.286;20.930;2023-08-20T08:52:51;100632.16;;;44.07;26.00
30724;BME280;17473;52.286;20.930;2023-08-20T08:55:20;100631.06;;;44.18;26.38
30724;BME280;17473;52.286;20.930;2023-08-20T08:57:47;100625.97;;;43.13;26.85
30724;BME280;17473;52.286;20.930;2023-08-20T09:00:14;100631.75;;;42.64;26.97
30724;BME280;17473;52.286;20.930;2023-08-20T09:02:42;100635.03;;;43.43;26.32
30724;BME280;17473;52.286;20.930;2023-08-20T09:05:09;100637.38;;;43.20;26.86
30724;BME280;17473;52.286;20.930;2023-08-20T09:07:42;100632.97;;;43.17;27.42
30724;BME280;17473;52.286;20.930;2023-08-20T09:10:10;100631.09;;;43.18;27.81
30724;BME280;17473;52.286;20.930;2023-08-20T09:12:38;100632.69;;;42.45;28.41
30724;BME280;17473;52.286;20.930;2023-08-20T09:15:11;100630.34;;;42.30;28.98
30724;BME280;17473;52.286;20.930;2023-08-20T09:17:41;100624.53;;;42.33;29.21
30724;BME280;17473;52.286;20.930;2023-08-20T09:20:09;100632.06;;;42.98;28.37
30724;BME280;17473;52.286;20.930;2023-08-20T09:22:37;100630.81;;;43.39;27.20
30724;BME280;17473;52.286;20.930;2023-08-20T09:25:05;100627.69;;;43.24;27.13
30724;BME280;17473;52.286;20.930;2023-08-20T09:27:39;100627.34;;;41.84;27.98
30724;BME280;17473;52.286;20.930;2023-08-20T09:30:09;100621.50;;;41.48;29.45
30724;BME280;17473;52.286;20.930;2023-08-20T09:32:37;100620.91;;;41.84;28.54
30724;BME280;17473;52.286;20.930;2023-08-20T09:35:05;100622.81;;;41.83;28.55
30724;BME280;17473;52.286;20.930;2023-08-20T09:37:34;100629.31;;;42.51;27.56
30724;BME280;17473;52.286;20.930;2023-08-20T09:40:01;100626.47;;;42.70;26.99
30724;BME280;17473;52.286;20.930;2023-08-20T09:42:31;100627.63;;;42.68;27.05
30724;BME280;17473;52.286;20.930;2023-08-20T09:45:02;100628.84;;;42.93;27.29
30724;BME280;17473;52.286;20.930;2023-08-20T09:47:35;100616.97;;;41.76;28.76
30724;BME280;17473;52.286;20.930;2023-08-20T09:50:07;100627.28;;;41.45;29.39
30724;BME280;17473;52.286;20.930;2023-08-20T09:52:40;100626.22;;;41.17;29.54
30724;BME280;17473;52.286;20.930;2023-08-20T09:55:16;100620.91;;;40.63;29.88
30724;BME280;17473;52.286;20.930;2023-08-20T09:57:45;100621.28;;;40.89;29.91
30724;BME280;17473;52.286;20.930;2023-08-20T10:00:14;100613.41;;;40.84;30.20
30724;BME280;17473;52.286;20.930;2023-08-20T10:02:42;100603.28;;;41.55;29.14
30724;BME280;17473;52.286;20.930;2023-08-20T10:05:12;100602.09;;;42.07;28.29
30724;BME280;17473;52.286;20.930;2023-08-20T10:07:39;100604.28;;;41.84;28.67
30724;BME280;17473;52.286;20.930;2023-08-20T10:10:09;100600.00;;;42.38;27.51
30724;BME280;17473;52.286;20.930;2023-08-20T10:12:39;100599.53;;;42.43;27.26
30724;BME280;17473;52.286;20.930;2023-08-20T10:15:08;100603.22;;;42.34;27.04
30724;BME280;17473;52.286;20.930;2023-08-20T10:17:39;100593.22;;;41.74;26.81
30724;BME280;17473;52.286;20.930;2023-08-20T10:20:09;100601.28;;;41.07;28.17
30724;BME280;17473;52.286;20.930;2023-08-20T10:22:39;100596.50;;;41.19;28.27
30724;BME280;17473;52.286;20.930;2023-08-20T10:25:08;100585.13;;;41.12;28.70
30724;BME280;17473;52.286;20.930;2023-08-20T10:27:39;100592.81;;;39.94;31.54
30724;BME280;17473;52.286;20.930;2023-08-20T10:30:16;100600.72;;;39.55;32.54
30724;BME280;17473;52.286;20.930;2023-08-20T10:35:28;100590.84;;;40.27;30.91
30724;BME280;17473;52.286;20.930;2023-08-20T10:38:15;100594.56;;;39.95;31.36
30724;BME280;17473;52.286;20.930;2023-08-20T10:43:39;100587.25;;;40.36;31.66
30724;BME280;17473;52.286;20.930;2023-08-20T10:48:59;100584.16;;;39.87;31.40
30724;BME280;17473;52.286;20.930;2023-08-20T10:51:33;100583.66;;;39.06;33.65
30724;BME280;17473;52.286;20.930;2023-08-20T10:56:54;100575.91;;;39.00;32.96
30724;BME280;17473;52.286;20.930;2023-08-20T10:59:25;100569.78;;;38.62;33.48
30724;BME280;17473;52.286;20.930;2023-08-20T11:01:55;100581.31;;;38.33;33.81
30724;BME280;17473;52.286;20.930;2023-08-20T11:04:33;100572.91;;;38.34;34.07
30724;BME280;17473;52.286;20.930;2023-08-20T11:07:01;100578.81;;;38.41;32.73
30724;BME280;17473;52.286;20.930;2023-08-20T11:09:30;100576.94;;;38.87;31.72
30724;BME280;17473;52.286;20.930;2023-08-20T11:11:58;100582.44;;;38.76;32.54
30724;BME280;17473;52.286;20.930;2023-08-20T11:14:26;100575.56;;;38.36;34.09
30724;BME280;17473;52.286;20.930;2023-08-20T11:16:53;100585.50;;;38.14;33.07
30724;BME280;17473;52.286;20.930;2023-08-20T11:19:23;100560.53;;;37.57;34.17
30724;BME280;17473;52.286;20.930;2023-08-20T11:21:51;100566.56;;;37.63;33.72
30724;BME280;17473;52.286;20.930;2023-08-20T11:24:19;100570.03;;;37.89;33.99
30724;BME280;17473;52.286;20.930;2023-08-20T11:26:48;100568.28;;;37.88;33.72
30724;BME280;17473;52.286;20.930;2023-08-20T11:29:16;100559.72;;;37.80;32.89
30724;BME280;17473;52.286;20.930;2023-08-20T11:31:49;100561.47;;;37.81;33.88
30724;BME280;17473;52.286;20.930;2023-08-20T11:34:19;100554.38;;;37.54;33.84
30724;BME280;17473;52.286;20.930;2023-08-20T11:36:46;100549.03;;;37.99;33.45
30724;BME280;17473;52.286;20.930;2023-08-20T11:39:15;100541.16;;;38.29;33.42
30724;BME280;17473;52.286;20.930;2023-08-20T11:41:43;100550.56;;;38.26;33.25
30724;BME280;17473;52.286;20.930;2023-08-20T11:44:18;100545.56;;;38.20;32.78
30724;BME280;17473;52.286;20.930;2023-08-20T11:46:45;100541.91;;;38.19;32.37
30724;BME280;17473;52.286;20.930;2023-08-20T11:49:13;100539.56;;;37.79;33.13
30724;BME280;17473;52.286;20.930;2023-08-20T11:51:44;100543.44;;;37.41;33.38
30724;BME280;17473;52.286;20.930;2023-08-20T11:54:16;100544.34;;;37.53;33.81
30724;BME280;17473;52.286;20.930;2023-08-20T11:56:49;100544.75;;;37.35;33.69
30724;BME280;17473;52.286;20.930;2023-08-20T11:59:21;100552.53;;;36.93;33.41
30724;BME280;17473;52.286;20.930;2023-08-20T12:01:54;100545.81;;;37.21;33.21
30724;BME280;17473;52.286;20.930;2023-08-20T12:04:25;100537.28;;;37.37;33.64
30724;BME280;17473;52.286;20.930;2023-08-20T12:07:09;100537.00;;;37.53;33.30
30724;BME280;17473;52.286;20.930;2023-08-20T12:09:40;100545.53;;;37.13;34.61
30724;BME280;17473;52.286;20.930;2023-08-20T12:12:09;100543.59;;;37.26;34.49
30724;BME280;17473;52.286;20.930;2023-08-20T12:14:37;100539.06;;;37.38;34.65
30724;BME280;17473;52.286;20.930;2023-08-20T12:17:04;100541.88;;;37.61;33.55
30724;BME280;17473;52.286;20.930;2023-08-20T12:19:31;100531.00;;;37.35;33.90
30724;BME280;17473;52.286;20.930;2023-08-20T12:21:58;100534.47;;;37.02;34.10
30724;BME280;17473;52.286;20.930;2023-08-20T12:24:25;100529.78;;;36.78;34.36
30724;BME280;17473;52.286;20.930;2023-08-20T12:26:53;100528.31;;;36.85;34.77
30724;BME280;17473;52.286;20.930;2023-08-20T12:29:20;100539.25;;;36.74;34.85
30724;BME280;17473;52.286;20.930;2023-08-20T12:31:47;100540.34;;;36.84;35.19
30724;BME280;17473;52.286;20.930;2023-08-20T12:34:14;100539.81;;;36.66;34.59
30724;BME280;17473;52.286;20.930;2023-08-20T12:36:41;100544.16;;;36.81;35.71
30724;BME280;17473;52.286;20.930;2023-08-20T12:39:08;100531.84;;;36.87;34.91
30724;BME280;17473;52.286;20.930;2023-08-20T12:41:35;100538.56;;;36.46;35.69
30724;BME280;17473;52.286;20.930;2023-08-20T12:44:04;100546.34;;;36.26;35.83
30724;BME280;17473;52.286;20.930;2023-08-20T12:46:31;100541.38;;;35.93;36.59
30724;BME280;17473;52.286;20.930;2023-08-20T12:48:58;100547.44;;;36.11;36.44
30724;BME280;17473;52.286;20.930;2023-08-20T12:51:26;100539.28;;;36.09;36.15
30724;BME280;17473;52.286;20.930;2023-08-20T12:53:53;100529.97;;;36.25;35.50
30724;BME280;17473;52.286;20.930;2023-08-20T12:56:21;100536.28;;;35.86;35.88
30724;BME280;17473;52.286;20.930;2023-08-20T12:58:48;100540.06;;;36.11;35.80